Time;durP1;ratioP1;P1;durP2;ratioP2;P2;SDS_P1;SDS_P2;PMS_P1;PMS_P2;Temp;Humidity;BMP_temperature;BMP_pressure;BME280_temperature;BME280_humidity;BME280_pressure;Samples;Min_cycle;Max_cycle;Signal;HPM_P1;HPM_P2
2023/10/16 04:00:53;;;;;;;0.50;0.10;;;6.80;65.40;;;;;;5785049;23;20495;-72
2023/10/16 04:03:23;;;;;;;0.50;0.10;;;6.60;68.40;;;;;;5013623;28;20454;-71
2023/10/16 04:05:51;;;;;;;0.50;0.20;;;6.60;72.00;;;;;;5014120;28;20950;-72
2023/10/16 04:08:23;;;;;;;0.60;0.30;;;6.60;75.50;;;;;;5001970;28;20462;-73
2023/10/16 04:10:53;;;;;;;0.50;0.20;;;6.60;76.40;;;;;;4979933;28;20492;-73
2023/10/16 04:13:25;;;;;;;0.50;0.10;;;6.50;76.20;;;;;;4995544;28;20483;-70
2023/10/16 04:16:09;;;;;;;0.60;0.43;;;6.40;75.40;;;;;;4995326;28;20480;-70
2023/10/16 04:18:41;;;;;;;0.90;0.60;;;6.40;76.00;;;;;;4986609;28;20543;-70
2023/10/16 04:23:54;;;;;;;0.60;0.40;;;6.40;79.00;;;;;;4992972;28;20452;-70
2023/10/16 04:26:47;;;;;;;0.50;0.10;;;6.30;80.20;;;;;;4997641;28;20543;-69
2023/10/16 04:29:28;;;;;;;0.50;0.10;;;6.30;82.10;;;;;;4983573;28;20453;-70
2023/10/16 04:31:58;;;;;;;0.50;0.10;;;6.20;81.30;;;;;;4995030;28;20511;-72
2023/10/16 04:34:34;;;;;;;0.70;0.70;;;6.20;82.10;;;;;;4982932;28;20562;-72
2023/10/16 04:43:03;;;;;;;0.50;0.10;;;6.10;87.90;;;;;;4988276;28;20543;-70
2023/10/16 04:45:54;;;;;;;0.50;0.10;;;6.10;90.20;;;;;;4979727;28;20470;-70
2023/10/16 04:48:47;;;;;;;0.50;0.20;;;6.00;91.50;;;;;;4987677;28;20468;-70
2023/10/16 04:51:17;;;;;;;0.50;0.20;;;6.00;95.10;;;;;;4993036;28;20591;-70
2023/10/16 04:53:59;;;;;;;0.50;0.10;;;6.00;95.70;;;;;;4994713;28;20526;-70
2023/10/16 04:56:57;;;;;;;0.50;0.10;;;6.00;96.10;;;;;;4978205;28;20441;-71
2023/10/16 05:02:16;;;;;;;0.50;0.10;;;6.10;97.00;;;;;;4986884;28;20826;-73
2023/10/16 05:07:45;;;;;;;0.50;0.10;;;5.90;97.90;;;;;;4964064;28;20463;-73
2023/10/16 05:10:17;;;;;;;0.50;0.20;;;5.90;99.90;;;;;;4983203;28;20449;-73
2023/10/16 05:18:20;;;;;;;0.50;0.10;;;6.00;99.90;;;;;;4971241;28;20455;-70
2023/10/16 05:21:19;;;;;;;0.50;0.10;;;6.00;99.90;;;;;;4988517;28;20475;-71
2023/10/16 06:14:11;;;;;;;0.50;0.20;;;5.80;99.90;;;;;;4991037;28;20544;-71
2023/10/16 06:16:40;;;;;;;0.50;0.10;;;5.90;99.90;;;;;;4994430;28;20455;-72
2023/10/16 06:19:15;;;;;;;0.50;0.10;;;6.00;99.90;;;;;;4980065;28;20456;-72
2023/10/16 06:21:47;;;;;;;0.50;0.10;;;;;;;;;;4972445;28;20563;-73
2023/10/16 06:24:25;;;;;;;1.50;1.40;;;6.10;99.90;;;;;;4973351;28;20455;-73
2023/10/16 06:26:56;;;;;;;0.50;0.10;;;6.10;99.90;;;;;;4973461;28;20458;-72
2023/10/16 06:29:34;;;;;;;0.50;0.10;;;6.00;99.90;;;;;;4973538;28;20542;-72
2023/10/16 06:32:07;;;;;;;0.50;0.10;;;6.00;99.90;;;;;;4973396;28;20928;-73
2023/10/16 06:34:36;;;;;;;0.50;0.30;;;6.10;99.90;;;;;;4973674;28;20475;-73
2023/10/16 06:37:06;;;;;;;0.60;0.43;;;6.10;99.90;;;;;;4973093;28;20446;-73
2023/10/16 06:39:36;;;;;;;1.13;1.03;;;6.10;99.90;;;;;;4974083;28;20454;-72
2023/10/16 06:42:14;;;;;;;0.50;0.23;;;6.20;99.90;;;;;;4973607;28;20468;-73
2023/10/16 06:44:50;;;;;;;0.50;0.10;;;6.30;99.90;;;;;;4973166;28;20452;-73
2023/10/16 06:47:23;;;;;;;0.50;0.13;;;6.30;99.90;;;;;;4971313;28;20473;-72
2023/10/16 06:49:52;;;;;;;0.50;0.10;;;6.30;99.90;;;;;;4969247;28;20467;-72
2023/10/16 06:52:20;;;;;;;0.50;0.10;;;6.20;99.90;;;;;;4971682;28;20547;-72
2023/10/16 06:54:48;;;;;;;3.03;2.83;;;6.30;99.90;;;;;;4969143;28;20444;-72
2023/10/16 06:57:19;;;;;;;0.50;0.10;;;6.30;99.90;;;;;;4972100;28;20453;-71
2023/10/16 06:59:50;;;;;;;0.50;0.10;;;6.30;99.90;;;;;;4967865;28;20492;-72
2023/10/16 07:02:20;;;;;;;0.50;0.10;;;6.30;99.90;;;;;;4972666;28;20479;-73
2023/10/16 07:04:48;;;;;;;0.50;0.10;;;6.30;99.90;;;;;;4972959;28;20536;-73
2023/10/16 07:07:17;;;;;;;0.50;0.10;;;6.40;99.90;;;;;;4976619;28;20941;-73
2023/10/16 07:09:49;;;;;;;0.50;0.10;;;6.40;99.90;;;;;;4976111;28;20521;-73
2023/10/16 07:12:19;;;;;;;0.50;0.10;;;6.50;99.90;;;;;;4975912;28;20505;-72
2023/10/16 07:14:55;;;;;;;0.50;0.10;;;6.60;99.90;;;;;;4973977;28;20481;-72
2023/10/16 07:17:24;;;;;;;0.50;0.10;;;6.70;99.90;;;;;;4972755;28;20528;-72
2023/10/16 07:19:58;;;;;;;0.50;0.10;;;6.70;99.90;;;;;;4971126;28;20864;-73
2023/10/16 07:22:31;;;;;;;0.50;0.10;;;;;;;;;;4964409;28;20477;-72
2023/10/16 07:25:22;;;;;;;0.50;0.10;;;7.00;99.90;;;;;;4972576;28;20457;-70
2023/10/16 07:27:58;;;;;;;0.50;0.10;;;6.90;99.90;;;;;;4971981;28;20480;-73
2023/10/16 07:30:27;;;;;;;0.50;0.20;;;6.90;99.90;;;;;;4969709;28;20506;-73
2023/10/16 07:32:55;;;;;;;0.70;0.57;;;7.00;99.90;;;;;;4961623;28;20492;-73
2023/10/16 07:35:23;;;;;;;0.70;0.70;;;7.00;99.90;;;;;;4970743;28;20449;-73
2023/10/16 07:37:53;;;;;;;0.50;0.10;;;7.10;99.90;;;;;;4973306;28;20454;-73
2023/10/16 07:40:21;;;;;;;0.50;0.10;;;7.20;99.90;;;;;;4972015;28;20508;-73
2023/10/16 07:42:49;;;;;;;0.60;0.30;;;7.20;99.90;;;;;;4972153;28;21039;-74
2023/10/16 07:45:18;;;;;;;0.50;0.20;;;7.10;99.30;;;;;;4971654;28;20513;-73
2023/10/16 07:47:48;;;;;;;0.60;0.10;;;7.10;98.70;;;;;;4967856;28;20453;-73
2023/10/16 07:50:16;;;;;;;0.80;0.67;;;7.10;97.70;;;;;;4970974;28;20481;-73
2023/10/16 07:52:44;;;;;;;1.57;1.40;;;7.10;97.50;;;;;;4971992;28;20853;-73
2023/10/16 07:55:18;;;;;;;0.50;0.10;;;3.40;96.20;;;;;;4971932;28;20450;-73
2023/10/16 07:57:47;;;;;;;0.60;0.20;;;7.00;98.90;;;;;;4972110;28;20540;-73
2023/10/16 08:00:16;;;;;;;0.50;0.10;;;7.00;99.00;;;;;;4970473;28;20455;-74
2023/10/16 08:02:45;;;;;;;0.50;0.10;;;7.00;99.90;;;;;;4970964;28;20446;-73
2023/10/16 08:05:16;;;;;;;0.50;0.10;;;7.00;99.90;;;;;;4971590;28;20444;-73
2023/10/16 08:07:52;;;;;;;0.50;0.10;;;7.10;99.90;;;;;;4971997;28;20449;-74
2023/10/16 08:10:41;;;;;;;0.50;0.10;;;7.10;99.90;;;;;;4964639;28;20454;-73
2023/10/16 08:13:12;;;;;;;0.50;0.10;;;7.20;99.90;;;;;;4965832;28;20497;-73
2023/10/16 08:15:45;;;;;;;2.10;2.00;;;7.20;99.90;;;;;;4969994;28;20442;-72
2023/10/16 08:18:18;;;;;;;1.10;0.97;;;7.10;99.90;;;;;;4970669;28;21077;-71
2023/10/16 08:21:05;;;;;;;0.50;0.20;;;7.10;99.90;;;;;;4969437;28;20461;-71
2023/10/16 08:23:38;;;;;;;0.50;0.10;;;7.10;99.90;;;;;;4970317;28;20453;-72
2023/10/16 08:26:14;;;;;;;0.60;0.33;;;7.20;99.90;;;;;;4971048;28;20516;-72
2023/10/16 08:28:46;;;;;;;1.80;0.83;;;7.10;99.90;;;;;;4968690;28;20503;-71
2023/10/16 08:31:23;;;;;;;4.43;0.50;;;7.10;99.90;;;;;;4971174;28;20530;-72
2023/10/16 08:33:55;;;;;;;0.60;0.30;;;7.20;99.90;;;;;;4970597;28;20540;-72
2023/10/16 08:36:23;;;;;;;1.13;0.40;;;7.20;99.90;;;;;;4971871;28;20457;-71
2023/10/16 08:38:55;;;;;;;0.60;0.40;;;7.20;99.90;;;;;;4967695;28;20461;-71
2023/10/16 08:41:42;;;;;;;0.70;0.50;;;7.20;99.90;;;;;;4970490;28;20486;-72
2023/10/16 08:44:14;;;;;;;0.50;0.20;;;7.20;99.90;;;;;;4971119;28;20528;-71
2023/10/16 08:46:52;;;;;;;0.50;0.10;;;7.20;99.90;;;;;;4968182;28;20457;-71
2023/10/16 08:49:23;;;;;;;0.50;0.10;;;7.20;99.90;;;;;;4973995;28;20445;-71
2023/10/16 08:51:52;;;;;;;0.50;0.10;;;7.20;99.90;;;;;;4970940;28;20468;-71
2023/10/16 08:57:12;;;;;;;0.50;0.10;;;7.50;99.90;;;;;;4949287;28;20570;-72
2023/10/16 08:59:42;;;;;;;0.50;0.10;;;7.50;99.90;;;;;;4974164;28;20474;-70
2023/10/16 09:02:11;;;;;;;0.50;0.10;;;7.60;99.90;;;;;;4973379;28;21010;-71
2023/10/16 09:04:41;;;;;;;0.50;0.10;;;7.60;99.90;;;;;;4974678;28;20870;-71
2023/10/16 09:07:11;;;;;;;0.50;0.10;;;7.70;99.90;;;;;;4970319;28;20446;-71
2023/10/16 09:09:41;;;;;;;0.50;0.10;;;7.90;99.90;;;;;;4980376;28;20474;-71
2023/10/16 09:12:10;;;;;;;0.50;0.20;;;8.00;99.90;;;;;;4975364;28;20481;-71
2023/10/16 09:14:38;;;;;;;0.80;0.47;;;8.00;99.90;;;;;;4973428;28;20968;-71
2023/10/16 09:17:07;;;;;;;0.60;0.30;;;8.00;99.90;;;;;;4974287;28;20450;-72
2023/10/16 09:19:45;;;;;;;0.60;0.43;;;8.10;99.90;;;;;;4973329;28;20461;-72
2023/10/16 09:22:30;;;;;;;0.50;0.10;;;7.90;99.90;;;;;;4970962;28;20573;-71
2023/10/16 09:24:59;;;;;;;0.60;0.27;;;8.10;99.90;;;;;;4987011;28;20438;-71
2023/10/16 09:27:30;;;;;;;1.53;1.43;;;8.10;99.90;;;;;;4990452;28;20995;-74
2023/10/16 09:30:00;;;;;;;0.50;0.10;;;8.20;99.90;;;;;;4987182;28;20457;-71
2023/10/16 09:32:36;;;;;;;0.50;0.10;;;8.20;99.90;;;;;;4984819;28;20501;-71
2023/10/16 09:35:06;;;;;;;1.77;1.67;;;8.20;99.90;;;;;;4985431;28;20535;-72
2023/10/16 09:37:35;;;;;;;0.50;0.10;;;8.30;99.90;;;;;;4990822;28;20445;-70
2023/10/16 09:40:35;;;;;;;0.60;0.40;;;8.30;99.90;;;;;;4972283;28;20881;-71
2023/10/16 09:43:18;;;;;;;0.60;0.27;;;8.30;99.90;;;;;;4981626;28;20475;-71
2023/10/16 09:45:47;;;;;;;1.80;1.27;;;8.40;99.90;;;;;;4973682;28;20449;-71
2023/10/16 09:48:20;;;;;;;0.50;0.10;;;8.50;99.90;;;;;;4973385;28;20446;-71
2023/10/16 09:50:50;;;;;;;0.73;0.73;;;8.60;99.90;;;;;;4969698;28;20592;-73
2023/10/16 09:53:20;;;;;;;0.60;0.50;;;8.60;99.90;;;;;;4989586;28;20943;-73
2023/10/16 09:55:53;;;;;;;0.50;0.10;;;8.60;99.90;;;;;;4973209;28;20582;-72
2023/10/16 09:58:22;;;;;;;0.50;0.10;;;8.60;99.90;;;;;;4989042;28;20480;-72
2023/10/16 10:00:52;;;;;;;0.50;0.20;;;8.60;99.90;;;;;;4976900;28;20476;-73
2023/10/16 10:03:21;;;;;;;1.00;0.60;;;8.70;99.90;;;;;;4985743;28;20597;-70
2023/10/16 10:05:55;;;;;;;0.50;0.10;;;8.80;99.90;;;;;;4976904;28;20437;-73
2023/10/16 10:08:39;;;;;;;0.80;0.53;;;8.80;99.90;;;;;;4973431;28;20445;-73
2023/10/16 10:11:17;;;;;;;0.50;0.10;;;9.00;99.60;;;;;;4972786;28;20499;-73
2023/10/16 10:14:20;;;;;;;0.50;0.10;;;9.00;97.80;;;;;;4975576;28;20556;-73
2023/10/16 10:16:50;;;;;;;0.60;0.40;;;9.10;96.20;;;;;;4972887;28;20495;-72
2023/10/16 10:19:24;;;;;;;0.57;0.20;;;9.10;94.90;;;;;;4992133;28;20888;-71
2023/10/16 10:21:53;;;;;;;0.50;0.10;;;9.10;95.10;;;;;;4971087;28;20521;-73
2023/10/16 10:24:24;;;;;;;0.53;0.10;;;9.20;95.20;;;;;;4985578;28;20441;-73
2023/10/16 10:26:52;;;;;;;0.60;0.30;;;9.40;95.40;;;;;;4984054;28;20456;-73
2023/10/16 10:29:20;;;;;;;0.97;0.97;;;9.50;94.60;;;;;;4984095;28;20956;-72
2023/10/16 10:31:50;;;;;;;0.60;0.10;;;9.60;92.60;;;;;;4980143;28;20480;-71
2023/10/16 10:34:23;;;;;;;0.60;0.10;;;9.70;87.10;;;;;;4972648;28;20517;-72
2023/10/16 10:36:51;;;;;;;0.80;0.63;;;9.70;82.90;;;;;;4969308;28;20453;-72
2023/10/16 10:39:43;;;;;;;0.60;0.10;;;9.70;80.70;;;;;;4983443;28;20963;-69
2023/10/16 10:42:23;;;;;;;0.60;0.10;;;9.70;78.70;;;;;;4979403;28;20475;-73
2023/10/16 10:45:17;;;;;;;0.60;0.10;;;9.80;79.80;;;;;;4985495;28;20980;-70
2023/10/16 10:47:45;;;;;;;3.40;0.80;;;9.90;70.90;;;;;;4977375;28;20456;-72
2023/10/16 10:50:14;;;;;;;0.60;0.10;;;10.00;61.90;;;;;;4984764;28;20557;-71
2023/10/16 10:52:43;;;;;;;0.60;0.10;;;10.00;59.20;;;;;;4982902;28;20459;-72
2023/10/16 10:55:19;;;;;;;0.60;0.10;;;10.10;59.40;;;;;;4991668;28;20484;-70
2023/10/16 10:57:55;;;;;;;0.60;0.10;;;10.20;56.10;;;;;;4973131;28;20527;-71
2023/10/16 11:00:43;;;;;;;0.60;0.10;;;10.20;52.70;;;;;;4975264;28;20480;-72
2023/10/16 11:03:22;;;;;;;0.60;0.10;;;10.20;54.30;;;;;;4991502;28;20449;-71
2023/10/16 11:05:51;;;;;;;0.60;0.10;;;10.20;56.10;;;;;;4966374;28;20927;-72
2023/10/16 11:08:22;;;;;;;0.60;0.10;;;10.20;54.50;;;;;;4979455;28;20923;-71
2023/10/16 11:10:52;;;;;;;0.60;0.27;;;10.20;47.70;;;;;;4974446;28;20519;-71
2023/10/16 11:13:21;;;;;;;0.60;0.10;;;10.20;46.30;;;;;;4971400;28;20529;-73
2023/10/16 11:15:53;;;;;;;0.60;0.10;;;10.20;43.20;;;;;;4981853;28;20508;-72
2023/10/16 11:18:26;;;;;;;0.60;0.10;;;10.20;41.00;;;;;;4987824;28;20503;-70
2023/10/16 11:20:57;;;;;;;0.60;0.10;;;10.30;39.80;;;;;;4976215;28;20463;-72
2023/10/16 11:23:31;;;;;;;0.60;0.10;;;10.40;38.10;;;;;;4978187;28;20460;-72
2023/10/16 11:26:00;;;;;;;0.60;0.10;;;10.50;37.50;;;;;;4989038;28;20503;-73
2023/10/16 11:28:31;;;;;;;0.60;0.10;;;10.60;33.00;;;;;;4988714;28;20441;-72
2023/10/16 11:31:04;;;;;;;0.60;0.10;;;10.60;32.20;;;;;;4991108;28;20471;-70
2023/10/16 11:33:43;;;;;;;0.60;0.10;;;10.70;32.80;;;;;;4981106;28;20476;-72
2023/10/16 11:36:13;;;;;;;0.60;0.10;;;10.80;32.80;;;;;;4977306;28;20583;-73
2023/10/16 11:38:43;;;;;;;0.60;0.10;;;10.80;32.10;;;;;;4980857;28;20584;-70
2023/10/16 11:41:16;;;;;;;0.60;0.10;;;10.90;29.80;;;;;;4982341;28;20488;-73
2023/10/16 11:43:51;;;;;;;0.60;0.10;;;10.90;26.60;;;;;;4990947;28;20453;-72
2023/10/16 11:46:34;;;;;;;0.60;0.10;;;11.90;23.70;;;;;;4976197;28;20528;-71
2023/10/16 11:51:58;;;;;;;0.60;0.10;;;11.00;23.10;;;;;;4949950;28;20457;-71
2023/10/16 11:54:28;;;;;;;0.60;0.20;;;11.10;23.40;;;;;;4990925;28;20483;-72
2023/10/16 11:56:59;;;;;;;0.60;0.10;;;11.10;23.40;;;;;;4995501;28;20508;-72
2023/10/16 11:59:29;;;;;;;2.67;2.57;;;11.00;22.20;;;;;;4995910;28;20516;-72
2023/10/16 12:02:00;;;;;;;0.60;0.10;;;11.10;18.00;;;;;;4976770;28;20480;-71
2023/10/16 12:04:32;;;;;;;0.60;0.10;;;11.10;16.90;;;;;;4981997;28;20528;-70
2023/10/16 12:07:01;;;;;;;0.60;0.20;;;11.10;14.90;;;;;;4984002;28;20531;-71
2023/10/16 12:09:36;;;;;;;0.60;0.10;;;11.10;15.20;;;;;;4990185;28;20851;-72
2023/10/16 12:12:08;;;;;;;0.60;0.20;;;11.30;15.70;;;;;;4982402;28;20846;-71
2023/10/16 12:14:37;;;;;;;0.60;0.10;;;11.20;13.60;;;;;;4982475;28;20555;-72
2023/10/16 12:17:11;;;;;;;0.60;0.10;;;11.30;12.90;;;;;;4994387;28;20473;-71
2023/10/16 12:19:39;;;;;;;0.60;0.10;;;11.40;11.50;;;;;;4978311;28;20466;-71
2023/10/16 12:22:08;;;;;;;0.60;0.10;;;11.50;11.60;;;;;;4967045;28;20473;-71
2023/10/16 12:24:38;;;;;;;0.60;0.10;;;11.60;10.20;;;;;;4968146;28;20466;-71
2023/10/16 12:27:08;;;;;;;0.60;0.10;;;11.70;9.30;;;;;;4976357;28;20465;-72
2023/10/16 12:29:36;;;;;;;0.60;0.10;;;11.80;9.50;;;;;;4975365;28;21028;-70
2023/10/16 12:32:04;;;;;;;0.60;0.10;;;11.90;9.10;;;;;;4962514;28;20546;-70
2023/10/16 12:34:32;;;;;;;0.60;0.10;;;11.90;4.30;;;;;;4972491;28;20472;-70
2023/10/16 12:37:06;;;;;;;0.60;0.10;;;12.00;1.00;;;;;;4994511;28;20448;-72
2023/10/16 12:39:44;;;;;;;0.60;0.10;;;11.80;1.00;;;;;;4988500;28;20448;-72
2023/10/16 12:42:14;;;;;;;0.60;0.10;;;11.70;1.00;;;;;;4980915;28;20500;-72
2023/10/16 12:44:42;;;;;;;0.60;0.10;;;11.70;1.00;;;;;;4984174;28;20449;-70
2023/10/16 12:47:11;;;;;;;1.23;1.13;;;11.70;1.00;;;;;;4980446;28;20440;-72
2023/10/16 12:49:53;;;;;;;0.60;0.10;;;11.70;1.00;;;;;;4989706;28;20448;-72
2023/10/16 12:52:21;;;;;;;0.60;0.10;;;11.80;1.00;;;;;;4982596;28;20477;-72
2023/10/16 12:54:52;;;;;;;0.60;0.10;;;11.90;1.00;;;;;;4986133;28;20436;-72
2023/10/16 12:57:23;;;;;;;0.60;0.10;;;11.70;1.00;;;;;;4986972;28;20500;-73
2023/10/16 12:59:54;;;;;;;0.60;0.10;;;11.70;1.00;;;;;;4983293;28;20545;-71
2023/10/16 13:02:25;;;;;;;0.60;0.13;;;11.80;1.00;;;;;;4968319;28;20481;-71
2023/10/16 13:04:55;;;;;;;0.60;0.10;;;11.90;1.00;;;;;;4977877;28;20647;-72
2023/10/16 13:07:26;;;;;;;0.60;0.20;;;11.70;1.00;;;;;;4987278;28;20513;-71
2023/10/16 13:10:14;;;;;;;0.60;0.10;;;;;;;;;;4978530;28;20443;-70
2023/10/16 13:12:44;;;;;;;0.60;0.10;;;11.80;1.00;;;;;;4983440;28;20445;-72
2023/10/16 13:15:15;;;;;;;0.60;0.10;;;11.80;1.00;;;;;;4985507;28;20481;-71
2023/10/16 13:17:44;;;;;;;0.60;0.10;;;11.90;1.00;;;;;;4993254;28;20577;-72
2023/10/16 13:20:17;;;;;;;0.60;0.10;;;12.10;1.00;;;;;;4981764;28;20895;-72
2023/10/16 13:22:49;;;;;;;0.60;0.10;;;12.10;1.00;;;;;;4984026;28;20962;-72
2023/10/16 13:25:17;;;;;;;0.60;0.10;;;12.10;1.00;;;;;;4979864;28;20464;-70
2023/10/16 13:27:47;;;;;;;0.60;0.10;;;12.20;1.00;;;;;;4993310;28;20769;-70
2023/10/16 13:30:16;;;;;;;0.60;0.17;;;12.10;1.00;;;;;;4981496;28;20453;-70
2023/10/16 13:32:47;;;;;;;0.60;0.10;;;12.10;1.00;;;;;;4991981;28;20449;-73
2023/10/16 13:35:18;;;;;;;0.60;0.10;;;12.00;1.00;;;;;;4992604;28;20445;-71
2023/10/16 13:37:47;;;;;;;0.60;0.10;;;12.00;1.00;;;;;;4983648;28;20543;-74
2023/10/16 13:40:20;;;;;;;0.60;0.17;;;12.10;1.00;;;;;;4976999;28;20460;-71
2023/10/16 13:42:50;;;;;;;0.60;0.10;;;12.20;1.00;;;;;;4977680;28;20556;-71
2023/10/16 13:45:21;;;;;;;2.93;0.57;;;12.00;1.00;;;;;;4981817;28;20449;-71
2023/10/16 13:47:50;;;;;;;0.60;0.10;;;12.10;1.00;;;;;;4981761;28;20455;-70
2023/10/16 13:50:24;;;;;;;0.60;0.10;;;12.20;1.00;;;;;;4979189;28;20530;-71
2023/10/16 13:52:53;;;;;;;0.60;0.10;;;12.10;1.00;;;;;;4984982;28;20445;-72
2023/10/16 13:55:24;;;;;;;0.60;0.10;;;12.20;1.00;;;;;;4992611;28;20441;-71
2023/10/16 13:57:54;;;;;;;0.60;0.10;;;12.30;1.00;;;;;;4977462;28;20479;-70
2023/10/16 14:00:29;;;;;;;0.60;0.10;;;12.30;1.00;;;;;;4981437;28;20449;-72
2023/10/16 14:02:59;;;;;;;0.60;0.10;;;12.10;1.00;;;;;;4969712;28;20535;-72
2023/10/16 14:05:28;;;;;;;0.60;0.10;;;12.10;1.00;;;;;;4969455;28;20450;-72
2023/10/16 14:08:00;;;;;;;0.60;0.10;;;12.20;1.00;;;;;;4973491;28;20619;-72
2023/10/16 14:10:28;;;;;;;0.60;0.10;;;12.20;1.00;;;;;;4988836;28;20448;-72
2023/10/16 14:13:00;;;;;;;0.60;0.10;;;12.20;1.00;;;;;;4973534;28;20521;-71
2023/10/16 14:15:32;;;;;;;0.60;0.10;;;12.10;1.00;;;;;;4981109;28;20477;-74
2023/10/16 14:18:01;;;;;;;0.60;0.10;;;12.10;1.00;;;;;;4976264;28;20433;-73
2023/10/16 14:20:36;;;;;;;0.60;0.10;;;12.10;1.00;;;;;;4978290;28;20446;-71
2023/10/16 14:23:09;;;;;;;0.60;0.10;;;12.10;1.00;;;;;;4976175;28;20464;-71
2023/10/16 14:25:41;;;;;;;0.60;0.20;;;12.10;1.00;;;;;;4976670;28;20477;-70
2023/10/16 14:28:25;;;;;;;0.60;0.10;;;12.00;1.00;;;;;;4979118;28;20457;-72
2023/10/16 14:30:56;;;;;;;0.60;0.10;;;12.00;1.00;;;;;;4992036;28;20544;-72
2023/10/16 14:33:28;;;;;;;0.60;0.10;;;12.00;1.00;;;;;;4984654;28;20561;-71
2023/10/16 14:35:56;;;;;;;0.60;0.27;;;11.90;1.00;;;;;;4976508;28;20820;-72
2023/10/16 14:38:25;;;;;;;0.60;0.13;;;11.90;1.00;;;;;;4977712;28;20450;-72
2023/10/16 14:40:55;;;;;;;0.60;0.10;;;11.90;1.00;;;;;;4984201;28;20647;-72
2023/10/16 14:43:24;;;;;;;0.60;0.10;;;11.90;1.00;;;;;;4983173;28;21019;-72
2023/10/16 14:45:53;;;;;;;0.60;0.10;;;12.00;1.00;;;;;;4994426;28;20445;-71
2023/10/16 14:48:23;;;;;;;0.60;0.10;;;11.90;1.00;;;;;;5015071;23;20528;-71
2023/10/16 14:50:52;;;;;;;0.60;0.10;;;11.90;1.00;;;;;;4992895;28;20453;-70
2023/10/16 14:53:21;;;;;;;0.60;0.10;;;11.90;1.00;;;;;;4992868;28;20452;-71
2023/10/16 14:55:50;;;;;;;0.60;0.10;;;11.80;1.00;;;;;;4991847;28;20523;-71
2023/10/16 14:58:19;;;;;;;0.60;0.10;;;11.80;1.00;;;;;;4975970;28;20476;-72
2023/10/16 15:01:15;;;;;;;0.60;0.20;;;;;;;;;;4946173;29;20435;-71
2023/10/16 15:03:44;;;;;;;0.60;0.10;;;11.70;1.00;;;;;;4962238;28;20971;-72
2023/10/16 15:06:14;;;;;;;0.60;0.10;;;11.70;1.00;;;;;;4972373;28;20438;-72
2023/10/16 15:08:44;;;;;;;0.60;0.10;;;11.60;1.00;;;;;;4963701;28;20466;-71
2023/10/16 15:11:12;;;;;;;0.60;0.10;;;11.70;1.00;;;;;;4972128;28;20492;-72
2023/10/16 15:13:42;;;;;;;0.60;0.10;;;11.70;1.00;;;;;;4964017;28;20469;-72
2023/10/16 15:16:11;;;;;;;0.60;0.20;;;11.70;1.00;;;;;;4964090;28;21021;-71
2023/10/16 15:18:40;;;;;;;0.60;0.10;;;11.60;1.00;;;;;;4971343;28;20470;-71
2023/10/16 15:21:08;;;;;;;0.60;0.10;;;11.60;1.00;;;;;;4957056;28;20446;-71
2023/10/16 15:23:36;;;;;;;0.60;0.10;;;11.60;1.00;;;;;;4964173;28;20450;-71
2023/10/16 15:26:06;;;;;;;0.60;0.10;;;11.60;1.00;;;;;;4956979;28;20521;-72
2023/10/16 15:28:35;;;;;;;0.60;0.10;;;11.60;1.00;;;;;;4963639;28;20469;-71
2023/10/16 15:31:06;;;;;;;0.60;0.10;;;11.60;1.00;;;;;;4957578;28;21004;-71
2023/10/16 15:33:38;;;;;;;0.60;0.10;;;11.60;1.00;;;;;;4970152;28;20438;-72
2023/10/16 15:36:07;;;;;;;0.60;0.10;;;11.60;1.00;;;;;;4957025;28;20750;-71
2023/10/16 15:38:37;;;;;;;0.60;0.10;;;11.60;1.00;;;;;;4963588;28;20988;-72
2023/10/16 15:41:09;;;;;;;0.60;0.10;;;11.50;1.00;;;;;;4972112;28;20473;-72
2023/10/16 15:43:37;;;;;;;0.60;0.10;;;11.50;1.00;;;;;;4971617;28;20442;-71
2023/10/16 15:46:13;;;;;;;0.60;0.10;;;11.50;1.00;;;;;;4960340;28;20459;-71
2023/10/16 15:48:43;;;;;;;0.60;0.10;;;10.90;1.00;;;;;;4960807;28;20509;-71
2023/10/16 15:51:11;;;;;;;0.60;0.10;;;11.50;1.00;;;;;;4975724;28;20943;-72
2023/10/16 15:53:43;;;;;;;0.60;0.10;;;11.50;1.00;;;;;;4967796;28;20446;-72
2023/10/16 15:56:11;;;;;;;0.60;0.10;;;11.50;1.00;;;;;;4971220;28;20443;-71
2023/10/16 15:58:39;;;;;;;0.60;0.10;;;11.40;1.00;;;;;;4955488;28;20473;-70
2023/10/16 16:01:10;;;;;;;33.17;10.57;;;11.30;1.00;;;;;;4960166;28;20453;-72
2023/10/16 16:03:39;;;;;;;0.60;0.10;;;11.30;1.00;;;;;;4967515;28;20454;-72
2023/10/16 16:06:11;;;;;;;0.60;0.10;;;11.30;1.00;;;;;;4967724;28;20450;-71
2023/10/16 16:08:46;;;;;;;0.60;0.10;;;11.30;1.00;;;;;;4974941;28;20449;-72
2023/10/16 16:11:14;;;;;;;0.60;0.13;;;11.20;1.00;;;;;;4970586;28;20507;-73
2023/10/16 16:13:43;;;;;;;0.60;0.10;;;11.20;1.00;;;;;;4956452;28;20964;-70
2023/10/16 16:16:11;;;;;;;0.60;0.40;;;11.20;1.00;;;;;;4968752;28;20546;-73
2023/10/16 16:18:40;;;;;;;0.60;0.10;;;11.10;1.00;;;;;;4949093;28;20550;-73
2023/10/16 16:21:13;;;;;;;0.60;0.10;;;11.00;1.00;;;;;;4952127;28;20828;-73
2023/10/16 16:23:42;;;;;;;0.60;0.10;;;11.10;1.00;;;;;;4954242;28;20534;-72
2023/10/16 16:26:10;;;;;;;0.60;0.10;;;11.00;1.00;;;;;;4951693;28;20474;-72
2023/10/16 16:28:39;;;;;;;0.60;0.10;;;11.00;1.00;;;;;;4953083;28;20482;-72
2023/10/16 16:31:07;;;;;;;0.60;0.10;;;10.90;1.00;;;;;;4966817;28;20493;-73
2023/10/16 16:33:36;;;;;;;0.60;0.10;;;10.90;1.00;;;;;;4964861;28;20500;-73
2023/10/16 16:36:08;;;;;;;0.60;0.10;;;10.90;1.00;;;;;;4959434;28;20441;-71
2023/10/16 16:38:36;;;;;;;0.60;0.10;;;10.90;1.00;;;;;;4976669;28;20576;-72
2023/10/16 16:41:05;;;;;;;0.60;0.10;;;10.90;1.00;;;;;;4976648;28;20451;-73
2023/10/16 16:43:33;;;;;;;0.60;0.10;;;;;;;;;;4964562;28;20829;-73
2023/10/16 16:46:03;;;;;;;0.60;0.10;;;10.90;1.00;;;;;;4956346;28;20514;-71
2023/10/16 16:48:31;;;;;;;0.60;0.20;;;10.80;1.00;;;;;;4956409;28;20552;-75
2023/10/16 16:50:59;;;;;;;0.60;0.10;;;10.80;1.00;;;;;;4956932;28;20473;-76
2023/10/16 16:53:27;;;;;;;0.60;0.10;;;10.70;1.00;;;;;;4960915;28;20823;-75
2023/10/16 16:55:55;;;;;;;0.60;0.10;;;10.70;1.00;;;;;;4962497;28;20511;-75
2023/10/16 16:58:24;;;;;;;0.60;0.10;;;10.70;1.00;;;;;;4968146;28;20486;-75
2023/10/16 17:00:53;;;;;;;0.60;0.10;;;10.60;1.00;;;;;;4976659;28;20446;-74
2023/10/16 17:03:21;;;;;;;0.60;0.10;;;10.60;1.00;;;;;;4977322;28;20959;-77
2023/10/16 17:05:49;;;;;;;0.60;0.10;;;10.60;1.00;;;;;;4977183;28;20485;-75
2023/10/16 17:08:17;;;;;;;0.60;0.20;;;10.50;1.00;;;;;;4961296;28;20479;-73
2023/10/16 17:10:45;;;;;;;0.60;0.10;;;10.50;1.00;;;;;;4954701;28;20451;-72
2023/10/16 17:13:14;;;;;;;0.60;0.10;;;10.50;1.00;;;;;;4956935;28;20470;-72
2023/10/16 17:15:43;;;;;;;0.60;0.10;;;10.50;1.00;;;;;;4952244;28;20454;-74
2023/10/16 17:18:12;;;;;;;0.60;0.10;;;10.50;1.00;;;;;;4948880;28;20490;-73
2023/10/16 17:20:40;;;;;;;0.60;0.10;;;10.40;1.00;;;;;;4966607;28;20446;-73
2023/10/16 17:23:08;;;;;;;0.60;0.10;;;10.40;1.00;;;;;;4968908;28;20445;-75
2023/10/16 17:25:36;;;;;;;0.60;0.27;;;10.40;1.00;;;;;;4962574;28;20463;-74
2023/10/16 17:28:04;;;;;;;0.60;0.10;;;10.40;1.00;;;;;;4959117;28;20557;-74
2023/10/16 17:30:33;;;;;;;0.60;0.27;;;10.40;1.00;;;;;;4955170;28;20478;-73
2023/10/16 17:33:02;;;;;;;0.60;0.10;;;10.30;1.10;;;;;;4975337;28;20456;-74
2023/10/16 17:35:33;;;;;;;0.60;0.10;;;10.30;1.90;;;;;;4969351;28;20875;-73
2023/10/16 17:38:03;;;;;;;0.60;0.10;;;10.30;1.90;;;;;;4966713;28;21064;-73
2023/10/16 17:40:31;;;;;;;0.60;0.10;;;10.30;2.30;;;;;;4970075;28;20449;-73
2023/10/16 17:42:59;;;;;;;0.60;0.30;;;10.30;2.90;;;;;;4968064;28;20492;-74
2023/10/16 17:45:27;;;;;;;0.60;0.10;;;10.30;3.70;;;;;;4976172;28;20782;-73
2023/10/16 17:47:55;;;;;;;0.60;0.10;;;10.30;4.30;;;;;;4974915;28;20611;-72
2023/10/16 17:50:25;;;;;;;0.60;0.10;;;10.30;4.60;;;;;;4966288;28;20825;-73
2023/10/16 17:52:54;;;;;;;0.60;0.10;;;10.30;4.10;;;;;;4974717;28;20858;-73
2023/10/16 17:55:23;;;;;;;0.60;0.30;;;10.20;8.80;;;;;;4975905;28;20462;-73
2023/10/16 17:57:51;;;;;;;0.60;0.10;;;10.20;6.40;;;;;;4973373;28;20551;-75
2023/10/16 18:00:23;;;;;;;0.60;0.10;;;;;;;;;;4973032;28;20532;-72
2023/10/16 18:02:51;;;;;;;0.90;0.30;;;10.20;5.40;;;;;;4973107;28;20944;-74
2023/10/16 18:05:21;;;;;;;0.60;0.10;;;;;;;;;;4963280;28;20462;-73
2023/10/16 18:07:51;;;;;;;0.60;0.20;;;10.20;6.40;;;;;;4951572;28;20980;-74
2023/10/16 18:10:19;;;;;;;0.60;0.10;;;10.10;6.90;;;;;;4955502;28;20482;-73
2023/10/16 18:12:46;;;;;;;0.60;0.10;;;10.10;7.70;;;;;;4965416;28;20489;-73
2023/10/16 18:15:15;;;;;;;0.60;0.20;;;10.20;9.50;;;;;;4957714;28;20454;-72
2023/10/16 18:17:43;;;;;;;0.60;0.10;;;10.20;10.40;;;;;;4960574;28;20575;-73
2023/10/16 18:20:15;;;;;;;0.60;0.10;;;10.10;12.10;;;;;;4963606;28;20457;-73
2023/10/16 18:22:43;;;;;;;0.60;0.10;;;10.10;12.40;;;;;;4964525;28;20509;-73
2023/10/16 18:25:13;;;;;;;0.60;0.10;;;10.10;13.50;;;;;;4962730;28;20607;-73
2023/10/16 18:27:41;;;;;;;0.60;0.10;;;10.10;14.40;;;;;;4963886;28;20517;-73
2023/10/16 18:30:09;;;;;;;0.60;0.10;;;10.10;15.70;;;;;;4958399;28;20470;-73
2023/10/16 18:32:39;;;;;;;0.70;0.57;;;10.10;16.20;;;;;;4957243;28;21025;-72
2023/10/16 18:35:08;;;;;;;0.60;0.10;;;10.10;16.00;;;;;;4964449;28;20545;-72
2023/10/16 18:37:36;;;;;;;0.60;0.10;;;10.10;16.60;;;;;;4970594;28;20465;-73